DAAD

Bou Saada Airport

Algeria
TAF DAAD 211700Z 2118/2203 34012KT 9999 FEW023 SCT026 TEMPO 2118/2121 34015G25KT FEW023TCU FEW026CB
Issued Valid From Valid To
Jan-21 @ 17:00 UTC
(7 hours ago)
Jan-21 @ 18:00 UTC
(6 hours ago)
Jan-22 @ 03:00 UTC
(in 3 hours)
Jan-21 @ 18:00 to Jan-22 @ 03:00
TAF DAAD 211700Z 2118/2203 34012KT 9999 FEW023 SCT026
Wind Visibility Clouds
340° at 12 knots 10,000+ meters
  • Few at 2,300' AGL
  • Scattered at 2,600' AGL
Expired Click to View Jan-21 @ 18:00 to Jan-21 @ 21:00
TEMPO 2118/2121 34015G25KT FEW023TCU FEW026CB
Wind Clouds
340° at 15 knots
 Gusting to 25 knots
  • Few at 2,300' AGL
  • Few at 2,600' AGL
TAF DAAD 211700Z 2118/2203 34012KT 9999 FEW023 SCT026 TEMPO 2118/2121 34015G25KT FEW023TCU FEW026CB
Issued Jan-21 @ 17:00 UTC
(7 hours ago)
Valid From Jan-21 @ 18:00 UTC
(6 hours ago)
Valid To Jan-22 @ 03:00 UTC
(in 3 hours)
Jan-21 @ 18:00 - Jan-22 @ 03:00
Wind Visibility
340° at 12 knots 10,000+ meters
Clouds
  • Few at 2,300' AGL
  • Scattered at 2,600' AGL
Jan-21 @ 18:00 - Jan-21 @ 21:00
Wind
340° at 15 knots
 Gusting to 25 knots
Clouds
  • Few at 2,300' AGL
  • Few at 2,600' AGL